WB7UVH Weather Reports


Display with metric or nautical units.
time (UTC)temp
F
wind
direction
speed
MPH
gust
MPH
rain 1hr
in
rain 24hr
in
rain mn
in
humidity
%
barometer
mb
20260510063004 61 267 0.0 0.0 0.00 0.00 0.00 73 1020.1
20260510061504 61 267 0.0 0.0 0.00 0.00 0.00 73 1019.9
20260510060004 62 267 1.0 3.0 0.00 0.00 0.00 72 1019.8
20260510054504 62 267 0.0 0.0 0.00 0.00 0.00 71 1019.9
20260510053004 62 267 0.0 1.0 0.00 0.00 0.00 71 1019.9
20260510051504 62 267 1.0 2.0 0.00 0.00 0.00 69 1019.9
20260510050005 63 268 0.0 0.0 0.00 0.00 0.00 68 1019.7
20260510044504 63 268 0.0 0.0 0.00 0.00 0.00 66 1019.4
20260510043004 63 268 0.0 0.0 0.00 0.00 0.00 64 1019.3
20260510041504 64 268 0.0 0.0 0.00 0.00 0.00 61 1019.1
20260510040004 64 268 0.0 0.0 0.00 0.00 0.00 60 1018.9
20260510034504 65 268 0.0 0.0 0.00 0.00 0.00 59 1018.8
20260510031504 67 268 0.0 0.0 0.00 0.00 0.00 59 1018.7
20260510030004 68 268 1.0 2.0 0.00 0.00 0.00 60 1018.6
20260510023004 70 248 0.0 1.0 0.00 0.00 0.00 59 1018.7
20260510020004 72 248 1.0 7.0 0.00 0.00 0.00 54 1018.7
20260510014504 72 270 2.0 6.0 0.00 0.00 0.00 51 1018.8
20260510013004 73 257 1.0 7.0 0.00 0.00 0.00 52 1019.0
20260510011504 73 250 1.0 3.0 0.00 0.00 0.00 48 1019.0
20260510010004 73 250 2.0 8.0 0.00 0.00 0.00 53 1019.2
20260510004504 74 257 1.0 10.0 0.00 0.00 0.00 51 1019.1
20260510003004 74 246 2.0 7.0 0.00 0.00 0.00 47 1019.3
20260510001504 74 260 1.0 8.0 0.00 0.00 0.00 47 1019.4
20260510000004 75 246 0.0 0.0 0.00 0.00 0.00 48 1019.5
20260509234504 75 200 0.0 6.0 0.00 0.00 0.00 49 1019.5
20260509233004 75 244 1.0 10.0 0.00 0.00 0.00 52 1019.5
20260509231503 75 265 0.0 3.0 0.00 0.00 0.00 52 1019.8
20260509230004 75 228 0.0 5.0 0.00 0.00 0.00 53 1019.9
20260509223004 77 238 0.0 0.0 0.00 0.00 0.00 53 1020.5
20260509221503 79 149 0.0 0.0 0.00 0.00 0.00 45 1020.6
20260509214504 78 136 0.0 0.0 0.00 0.00 0.00 43 1020.8
20260509213003 77 140 0.0 0.0 0.00 0.00 0.00 41 1020.9
20260509211504 76 241 0.0 0.0 0.00 0.00 0.00 41 1021.0
20260509210004 75 165 0.0 0.0 0.00 0.00 0.00 45 1021.2
20260509204504 74 138 0.0 3.0 0.00 0.00 0.00 44 1021.4
20260509203004 74 101 0.0 0.0 0.00 0.00 0.00 43 1021.8
20260509201503 74 118 0.0 6.0 0.00 0.00 0.00 43 1022.0
20260509200004 72 139 0.0 0.0 0.00 0.00 0.00 48 1022.3
20260509191503 71 137 0.0 3.0 0.00 0.00 0.00 52 1023.1
20260509190004 69 117 2.0 3.0 0.00 0.00 0.00 55 1023.3
20260509184503 68 73 1.0 3.0 0.00 0.00 0.00 58 1023.7
20260509183003 67 149 0.0 5.0 0.00 0.00 0.00 61 1023.8
20260509181504 66 90 1.0 3.0 0.00 0.00 0.00 62 1023.9
20260509180004 63 150 0.0 1.0 0.00 0.00 0.00 69 1024.1
20260509174504 62 146 0.0 0.0 0.00 0.00 0.00 70 1024.5
20260509173004 61 138 0.0 0.0 0.00 0.00 0.00 72 1024.6
20260509171504 61 138 0.0 0.0 0.00 0.00 0.00 70 1024.7
20260509170004 61 136 0.0 0.0 0.00 0.00 0.00 71 1024.9
20260509164504 61 144 0.0 1.0 0.00 0.00 0.00 68 1025.1
20260509163003 60 144 0.0 0.0 0.00 0.00 0.00 72 1025.2
20260509161504 59 143 0.0 1.0 0.00 0.00 0.00 75 1025.3
20260509160004 59 143 0.0 2.0 0.00 0.00 0.00 75 1025.3
20260509154504 58 144 0.0 0.0 0.00 0.00 0.00 76 1025.6
20260509153004 57 145 0.0 3.0 0.00 0.00 0.00 81 1026.0
20260509151504 56 100 0.0 3.0 0.00 0.00 0.00 82 1026.3
20260509144504 53 75 0.0 3.0 0.00 0.00 0.00 88 1026.2
20260509143003 51 330 0.0 0.0 0.00 0.00 0.00 91 1026.0
20260509141504 50 301 0.0 1.0 0.00 0.00 0.00 92 1026.1
20260509140005 49 293 0.0 0.0 0.00 0.00 0.00 92 1026.1
20260509134504 49 293 0.0 0.0 0.00 0.00 0.00 91 1026.1
20260509133005 49 293 0.0 0.0 0.00 0.00 0.00 91 1025.9
20260509131503 49 292 0.0 0.0 0.00 0.00 0.00 91 1025.8
20260509130004 49 292 0.0 1.0 0.00 0.00 0.00 91 1026.0
20260509124504 49 292 0.0 3.0 0.00 0.00 0.00 91 1026.0
20260509121504 49 291 0.0 0.0 0.00 0.00 0.00 89 1025.7
20260509120004 49 291 0.0 2.0 0.00 0.00 0.00 89 1025.8
20260509111504 50 274 2.0 3.0 0.00 0.00 0.00 87 1026.2
20260509104503 51 242 0.0 2.0 0.00 0.00 0.00 86 1026.2
20260509101503 51 242 1.0 2.0 0.00 0.00 0.00 86 1026.2
20260509100004 52 242 0.0 2.0 0.00 0.00 0.00 85 1026.4
20260509094503 52 242 0.0 2.0 0.00 0.00 0.00 85 1026.4
20260509093005 52 243 2.0 3.0 0.00 0.00 0.00 86 1026.5
20260509091504 52 271 0.0 0.0 0.00 0.00 0.00 85 1026.4
20260509090004 53 271 0.0 0.0 0.00 0.00 0.00 84 1026.6
20260509084503 53 271 0.0 0.0 0.00 0.00 0.00 84 1026.8
20260509083004 53 271 0.0 0.0 0.00 0.00 0.00 82 1027.0
20260509081504 54 271 0.0 2.0 0.00 0.00 0.00 82 1027.0
20260509080004 54 271 1.0 2.0 0.00 0.00 0.00 81 1027.1
20260509074504 55 271 1.0 2.0 0.00 0.00 0.00 80 1027.1
20260509071504 56 271 1.0 3.0 0.00 0.00 0.00 77 1027.1
20260509070004 57 280 1.0 3.0 0.00 0.00 0.00 76 1027.0